Time;durP1;ratioP1;P1;durP2;ratioP2;P2;SDS_P1;SDS_P2;PMS_P1;PMS_P2;Temp;Humidity;BMP_temperature;BMP_pressure;BME280_temperature;BME280_humidity;BME280_pressure;Samples;Min_cycle;Max_cycle;Signal;HPM_P1;HPM_P2
2024/03/11 00:00:54;;;;;;;35.00;31.70;;;8.30;99.90;;;;;;5041558;28;20475;-78
2024/03/11 00:03:22;;;;;;;34.63;31.30;;;8.30;99.90;;;;;;5043065;28;20550;-78
2024/03/11 00:05:52;;;;;;;34.30;31.10;;;8.30;99.90;;;;;;5041080;28;20461;-78
2024/03/11 00:08:21;;;;;;;34.07;30.70;;;8.30;99.90;;;;;;5041205;28;20435;-78
2024/03/11 00:10:55;;;;;;;33.00;29.77;;;8.40;99.90;;;;;;5041476;28;20800;-78
2024/03/11 00:13:32;;;;;;;34.77;31.37;;;8.40;99.90;;;;;;5041405;28;20422;-78
2024/03/11 00:16:00;;;;;;;33.80;30.50;;;8.40;99.90;;;;;;5039555;28;20493;-78
2024/03/11 00:18:29;;;;;;;33.20;30.00;;;8.40;99.90;;;;;;5040296;28;20967;-78
2024/03/11 00:20:57;;;;;;;31.57;28.47;;;8.30;99.90;;;;;;5039633;28;20542;-78
2024/03/11 00:23:26;;;;;;;31.97;28.97;;;8.40;99.90;;;;;;5039317;28;20443;-78
2024/03/11 00:25:54;;;;;;;32.63;29.43;;;8.40;99.90;;;;;;5038314;28;20458;-78
2024/03/11 00:28:23;;;;;;;26.27;23.77;;;8.40;99.90;;;;;;5039050;28;20530;-78
2024/03/11 00:30:53;;;;;;;33.87;30.40;;;8.40;99.90;;;;;;5040653;28;20435;-78
2024/03/11 00:33:22;;;;;;;32.83;29.70;;;8.40;99.90;;;;;;5038306;28;20459;-78
2024/03/11 00:35:50;;;;;;;32.43;29.13;;;8.40;99.90;;;;;;5038541;28;20505;-78
2024/03/11 00:38:18;;;;;;;32.73;29.43;;;8.40;99.90;;;;;;5038121;28;20862;-78
2024/03/11 00:40:47;;;;;;;32.20;29.00;;;8.40;99.90;;;;;;5039785;28;20450;-78
2024/03/11 00:43:16;;;;;;;32.60;29.53;;;8.40;99.90;;;;;;5039096;28;20948;-78
2024/03/11 00:45:44;;;;;;;31.63;28.53;;;8.40;99.90;;;;;;5037726;28;20964;-78
2024/03/11 00:48:14;;;;;;;31.23;28.37;;;8.50;99.90;;;;;;5037970;28;21007;-78
2024/03/11 00:50:42;;;;;;;31.07;28.00;;;8.50;99.90;;;;;;5037972;28;20828;-78
2024/03/11 00:53:11;;;;;;;31.93;28.90;;;8.50;99.90;;;;;;5038063;28;20451;-78
2024/03/11 00:55:39;;;;;;;30.67;27.73;;;8.50;99.90;;;;;;5037278;28;20494;-79
2024/03/11 00:58:08;;;;;;;31.13;28.10;;;8.50;99.90;;;;;;5037503;28;20821;-78
2024/03/11 01:00:36;;;;;;;30.93;28.13;;;8.50;99.90;;;;;;5039379;28;20467;-78
2024/03/11 01:03:06;;;;;;;32.00;28.80;;;8.50;99.90;;;;;;5038983;28;20469;-78
2024/03/11 01:05:36;;;;;;;29.80;26.93;;;8.50;99.90;;;;;;5037693;28;20442;-78
2024/03/11 01:08:05;;;;;;;31.43;28.33;;;8.50;99.90;;;;;;5037430;28;20450;-78
2024/03/11 01:10:33;;;;;;;30.60;27.70;;;8.50;99.90;;;;;;5038125;28;20473;-78
2024/03/11 01:13:01;;;;;;;29.10;26.20;;;8.60;99.90;;;;;;5037172;28;20454;-78
2024/03/11 01:15:29;;;;;;;30.87;27.97;;;8.60;99.90;;;;;;5038749;28;20501;-78
2024/03/11 01:17:58;;;;;;;31.70;28.43;;;8.60;99.90;;;;;;5037629;28;20546;-78
2024/03/11 01:20:29;;;;;;;31.03;28.10;;;8.60;99.90;;;;;;5037605;28;20466;-78
2024/03/11 01:22:59;;;;;;;30.80;28.10;;;8.60;99.90;;;;;;5037054;28;20473;-78
2024/03/11 01:25:27;;;;;;;29.87;27.13;;;8.60;99.90;;;;;;5037146;28;20447;-78
2024/03/11 01:27:55;;;;;;;31.37;28.47;;;8.60;99.90;;;;;;5037005;28;20443;-78
2024/03/11 01:30:24;;;;;;;31.07;28.17;;;8.60;99.90;;;;;;5036995;28;20470;-79
2024/03/11 01:32:53;;;;;;;30.50;27.40;;;8.60;99.90;;;;;;5037321;28;21023;-78
2024/03/11 01:35:21;;;;;;;30.40;27.67;;;8.60;99.90;;;;;;5036424;28;20466;-78
2024/03/11 01:37:50;;;;;;;30.90;27.80;;;8.60;99.90;;;;;;5036770;28;20451;-78
2024/03/11 01:40:22;;;;;;;29.93;26.93;;;8.60;99.90;;;;;;5036909;28;20474;-78
2024/03/11 01:42:50;;;;;;;30.60;27.73;;;8.60;99.90;;;;;;5036283;28;20443;-78
2024/03/11 01:45:18;;;;;;;29.50;26.73;;;8.60;99.90;;;;;;5036689;28;20501;-78
2024/03/11 01:47:47;;;;;;;31.77;28.70;;;8.60;99.90;;;;;;5036640;28;20451;-78
2024/03/11 01:50:17;;;;;;;30.77;27.83;;;8.60;99.90;;;;;;5036433;28;20521;-78
2024/03/11 01:52:50;;;;;;;32.27;29.20;;;8.60;99.90;;;;;;5036483;28;20454;-78
2024/03/11 01:55:22;;;;;;;29.70;26.83;;;8.60;99.90;;;;;;5036253;28;20443;-78
2024/03/11 01:57:54;;;;;;;32.00;29.00;;;8.60;99.90;;;;;;5039039;28;20450;-78
2024/03/11 02:00:23;;;;;;;32.37;28.97;;;8.60;99.90;;;;;;5039944;28;20474;-78
2024/03/11 02:02:53;;;;;;;29.80;26.90;;;8.60;99.90;;;;;;5040011;28;20463;-78
2024/03/11 02:05:24;;;;;;;31.10;28.10;;;8.60;99.90;;;;;;5039661;28;20500;-78
2024/03/11 02:07:59;;;;;;;30.63;27.53;;;8.60;99.90;;;;;;5040095;28;20439;-78
2024/03/11 02:10:30;;;;;;;30.70;27.80;;;8.60;99.90;;;;;;5039628;28;20472;-78
2024/03/11 02:12:59;;;;;;;30.97;27.93;;;8.60;99.90;;;;;;5039750;28;20486;-78
2024/03/11 02:15:28;;;;;;;31.40;28.40;;;8.60;99.90;;;;;;5039641;28;20439;-78
2024/03/11 02:17:57;;;;;;;28.50;25.70;;;8.60;99.90;;;;;;5039425;28;20470;-78
2024/03/11 02:20:28;;;;;;;31.30;28.33;;;8.60;99.90;;;;;;5039582;28;20497;-78
2024/03/11 02:22:58;;;;;;;27.90;25.40;;;8.70;99.90;;;;;;5039762;28;20446;-78
2024/03/11 02:25:30;;;;;;;29.63;26.80;;;8.70;99.90;;;;;;5038797;28;20455;-78
2024/03/11 02:28:00;;;;;;;31.20;28.20;;;8.60;99.90;;;;;;5039083;28;20443;-78
2024/03/11 02:30:28;;;;;;;30.40;27.37;;;8.70;99.90;;;;;;5039557;28;20554;-78
2024/03/11 02:32:57;;;;;;;31.37;28.30;;;8.60;99.90;;;;;;5039154;28;20986;-78
2024/03/11 02:35:27;;;;;;;31.33;28.50;;;8.70;99.90;;;;;;5039339;28;20451;-78
2024/03/11 02:37:55;;;;;;;29.87;27.07;;;8.60;99.90;;;;;;5038773;28;20844;-78
2024/03/11 02:40:26;;;;;;;29.20;26.40;;;8.70;99.90;;;;;;5039252;28;20467;-78
2024/03/11 02:42:57;;;;;;;30.17;27.47;;;8.60;99.90;;;;;;5039038;28;20463;-78
2024/03/11 02:45:30;;;;;;;29.67;26.77;;;8.70;99.90;;;;;;5038682;28;20538;-78
2024/03/11 02:47:59;;;;;;;31.63;28.57;;;8.60;99.90;;;;;;5039052;28;20511;-79
2024/03/11 02:50:28;;;;;;;29.23;26.43;;;8.60;99.90;;;;;;5041933;28;20463;-79
2024/03/11 02:52:56;;;;;;;30.10;27.03;;;8.60;99.90;;;;;;5042687;28;20455;-79
2024/03/11 02:55:24;;;;;;;30.27;27.47;;;8.60;99.90;;;;;;5042622;28;20447;-79
2024/03/11 02:57:53;;;;;;;28.37;25.87;;;8.60;99.90;;;;;;5042299;28;20550;-79
2024/03/11 03:00:23;;;;;;;30.97;27.97;;;8.60;99.90;;;;;;5041355;28;20496;-78
2024/03/11 03:02:52;;;;;;;30.23;27.37;;;8.60;99.90;;;;;;5042796;28;20439;-78
2024/03/11 03:05:21;;;;;;;29.90;27.00;;;8.60;99.90;;;;;;5041435;28;20959;-79
2024/03/11 03:07:50;;;;;;;29.87;27.07;;;8.60;99.90;;;;;;5042561;28;20500;-79
2024/03/11 03:10:18;;;;;;;30.13;27.43;;;8.60;99.90;;;;;;5041536;28;20481;-79
2024/03/11 03:12:46;;;;;;;28.37;25.57;;;8.60;99.90;;;;;;5041754;28;20459;-79
2024/03/11 03:15:16;;;;;;;29.67;26.87;;;8.60;99.90;;;;;;5042271;28;20432;-78
2024/03/11 03:17:46;;;;;;;29.17;26.33;;;8.60;99.90;;;;;;5040626;28;20463;-78
2024/03/11 03:20:15;;;;;;;28.73;26.13;;;8.60;99.90;;;;;;5040548;28;20475;-78
2024/03/11 03:22:43;;;;;;;29.23;26.33;;;8.60;99.90;;;;;;5040837;28;20557;-79
2024/03/11 03:25:13;;;;;;;28.97;26.17;;;8.60;99.90;;;;;;5039749;28;20581;-78
2024/03/11 03:27:41;;;;;;;29.10;26.40;;;8.60;99.90;;;;;;5040627;28;20462;-78
2024/03/11 03:30:10;;;;;;;30.43;27.37;;;8.60;99.90;;;;;;5039962;28;20470;-79
2024/03/11 03:32:38;;;;;;;30.83;27.83;;;8.60;99.90;;;;;;5040397;28;20527;-79
2024/03/11 03:35:09;;;;;;;29.50;26.43;;;8.60;99.90;;;;;;5041707;28;20443;-79
2024/03/11 03:37:39;;;;;;;30.63;27.57;;;8.60;99.90;;;;;;5038749;28;20880;-79
2024/03/11 03:40:15;;;;;;;29.70;26.80;;;8.60;99.90;;;;;;5039601;28;20521;-78
2024/03/11 03:42:46;;;;;;;30.27;27.43;;;8.60;99.90;;;;;;5039328;28;20447;-78
2024/03/11 03:45:15;;;;;;;31.50;28.60;;;8.60;99.90;;;;;;5039880;28;20461;-79
2024/03/11 03:47:45;;;;;;;31.10;28.20;;;8.60;99.90;;;;;;5039352;28;20513;-78
2024/03/11 03:50:15;;;;;;;28.93;26.10;;;8.60;99.90;;;;;;5039342;28;20474;-78
2024/03/11 03:52:43;;;;;;;29.43;26.77;;;8.60;99.90;;;;;;5037122;28;20936;-78
2024/03/11 03:55:12;;;;;;;29.77;27.17;;;8.50;99.90;;;;;;5035564;28;20534;-77
2024/03/11 03:57:42;;;;;;;29.30;26.70;;;8.50;99.90;;;;;;5035788;28;20876;-78
2024/03/11 04:00:16;;;;;;;31.10;28.27;;;8.50;99.90;;;;;;5037372;28;20474;-78
2024/03/11 04:02:45;;;;;;;32.30;29.20;;;8.50;99.90;;;;;;5039219;28;20455;-78
2024/03/11 04:05:15;;;;;;;31.00;28.03;;;8.40;99.90;;;;;;5039906;28;20991;-78
2024/03/11 04:07:43;;;;;;;31.00;28.10;;;8.40;99.90;;;;;;5038274;28;20535;-78
2024/03/11 04:10:13;;;;;;;32.70;29.47;;;8.40;99.90;;;;;;5038860;28;20489;-78
2024/03/11 04:12:44;;;;;;;32.10;29.03;;;8.40;99.90;;;;;;5036467;28;20509;-77
2024/03/11 04:15:16;;;;;;;31.40;28.10;;;8.40;99.90;;;;;;5034248;28;20451;-77
2024/03/11 04:17:45;;;;;;;31.43;28.30;;;8.30;99.90;;;;;;5034029;28;20805;-79
2024/03/11 04:20:16;;;;;;;30.57;27.67;;;8.30;99.90;;;;;;5038353;28;20985;-78
2024/03/11 04:22:45;;;;;;;32.20;29.20;;;8.30;99.90;;;;;;5035756;28;20920;-78
2024/03/11 04:25:17;;;;;;;33.40;30.00;;;8.30;99.90;;;;;;5034557;28;20967;-77
2024/03/11 04:27:46;;;;;;;30.63;27.80;;;8.20;99.90;;;;;;5036144;28;20896;-77
2024/03/11 04:30:15;;;;;;;33.07;29.90;;;8.30;99.90;;;;;;5033773;28;20482;-78
2024/03/11 04:32:51;;;;;;;34.47;31.07;;;8.20;99.90;;;;;;5035440;28;20497;-79
2024/03/11 04:35:25;;;;;;;31.30;28.40;;;8.20;99.90;;;;;;5033780;28;20482;-77
2024/03/11 04:37:54;;;;;;;31.30;28.30;;;8.20;99.90;;;;;;5033667;28;20470;-77
2024/03/11 04:40:25;;;;;;;33.63;30.40;;;8.10;99.90;;;;;;5033441;28;20470;-78
2024/03/11 04:42:54;;;;;;;34.00;30.60;;;8.10;99.90;;;;;;5035258;28;20419;-77
2024/03/11 04:45:23;;;;;;;32.23;29.17;;;8.10;99.90;;;;;;5034761;28;20528;-77
2024/03/11 04:47:52;;;;;;;33.37;30.20;;;8.10;99.90;;;;;;5034519;28;20944;-77
2024/03/11 04:50:24;;;;;;;33.20;29.90;;;8.10;99.90;;;;;;5033080;28;20470;-77
2024/03/11 04:52:55;;;;;;;31.47;28.33;;;8.00;99.90;;;;;;5034046;28;20439;-77
2024/03/11 04:55:24;;;;;;;33.33;30.03;;;8.00;99.90;;;;;;5032998;28;20454;-77
2024/03/11 04:57:52;;;;;;;32.93;29.77;;;8.00;99.90;;;;;;5032626;28;20470;-77
2024/03/11 05:00:26;;;;;;;33.00;29.77;;;7.90;99.90;;;;;;5034109;28;20482;-77
2024/03/11 05:02:55;;;;;;;33.00;29.60;;;7.90;99.90;;;;;;5032951;28;20501;-77
2024/03/11 05:05:26;;;;;;;32.90;29.60;;;7.90;99.90;;;;;;5032891;28;20834;-77
2024/03/11 05:07:55;;;;;;;31.40;28.50;;;7.90;99.90;;;;;;5032848;28;20541;-77
2024/03/11 05:10:23;;;;;;;32.97;29.47;;;7.90;99.90;;;;;;5032584;28;20561;-77
2024/03/11 05:12:52;;;;;;;31.17;28.23;;;7.80;99.90;;;;;;5032876;28;20449;-77
2024/03/11 05:15:21;;;;;;;31.67;28.57;;;7.80;99.90;;;;;;5033686;28;20454;-77
2024/03/11 05:17:50;;;;;;;31.53;28.43;;;7.80;99.90;;;;;;5032517;28;20467;-77
2024/03/11 05:20:19;;;;;;;31.63;28.40;;;7.80;99.90;;;;;;5032399;28;20501;-77
2024/03/11 05:22:50;;;;;;;33.37;30.10;;;7.80;99.90;;;;;;5034173;28;20526;-77
2024/03/11 05:25:19;;;;;;;32.53;28.50;;;7.80;99.90;;;;;;5032471;28;20439;-77
2024/03/11 05:27:48;;;;;;;31.73;28.63;;;7.70;99.90;;;;;;5032644;28;20450;-77
2024/03/11 05:30:18;;;;;;;32.50;29.40;;;7.70;99.90;;;;;;5033335;28;20506;-79
2024/03/11 05:32:48;;;;;;;33.67;30.17;;;7.70;99.90;;;;;;5037526;28;20449;-79
2024/03/11 05:35:17;;;;;;;31.33;28.23;;;7.70;99.90;;;;;;5040684;28;20439;-79
2024/03/11 05:37:54;;;;;;;32.27;29.07;;;7.70;99.90;;;;;;5036628;28;20569;-77
2024/03/11 05:40:24;;;;;;;33.33;28.93;;;7.70;99.90;;;;;;5036763;28;20561;-77
2024/03/11 05:42:54;;;;;;;34.07;30.77;;;7.60;99.90;;;;;;5036321;28;20470;-77
2024/03/11 05:45:23;;;;;;;32.27;29.07;;;7.60;99.90;;;;;;5039822;28;20983;-79
2024/03/11 05:47:51;;;;;;;33.43;29.97;;;7.60;99.90;;;;;;5036863;28;20478;-77
2024/03/11 05:50:21;;;;;;;32.17;28.87;;;7.60;99.90;;;;;;5036063;28;20991;-77
2024/03/11 05:52:51;;;;;;;32.17;28.83;;;7.60;99.90;;;;;;5035954;28;20458;-77
2024/03/11 05:55:22;;;;;;;31.07;27.77;;;7.60;99.90;;;;;;5037127;28;20446;-79
2024/03/11 05:57:50;;;;;;;34.27;30.90;;;7.60;99.90;;;;;;5041672;28;20457;-80
2024/03/11 06:00:19;;;;;;;32.03;28.63;;;7.60;99.90;;;;;;5043905;28;20474;-79
2024/03/11 06:02:47;;;;;;;32.00;28.63;;;7.60;99.90;;;;;;5041404;28;20485;-79
2024/03/11 06:05:19;;;;;;;32.97;29.57;;;7.60;99.90;;;;;;5044334;28;20849;-79
2024/03/11 06:07:48;;;;;;;32.17;29.03;;;7.60;99.90;;;;;;5042441;28;20476;-77
2024/03/11 06:10:19;;;;;;;32.73;29.40;;;7.50;99.90;;;;;;5038285;28;20470;-77
2024/03/11 06:12:48;;;;;;;33.17;29.93;;;7.50;99.90;;;;;;5038314;28;20496;-77
2024/03/11 06:15:17;;;;;;;33.27;29.87;;;7.50;99.90;;;;;;5038007;28;20953;-78
2024/03/11 06:17:45;;;;;;;33.30;30.07;;;7.60;99.90;;;;;;5038064;28;20490;-77
2024/03/11 06:20:14;;;;;;;32.27;29.13;;;7.50;99.90;;;;;;5038906;28;20465;-77
2024/03/11 06:22:43;;;;;;;31.97;28.57;;;7.50;99.90;;;;;;5037529;28;20457;-77
2024/03/11 06:25:12;;;;;;;32.40;28.90;;;7.50;99.90;;;;;;5037197;28;21017;-77
2024/03/11 06:27:43;;;;;;;32.93;29.80;;;7.50;99.90;;;;;;5036628;28;20473;-77
2024/03/11 06:30:12;;;;;;;32.53;29.37;;;7.50;99.90;;;;;;5037398;28;20470;-77
2024/03/11 06:32:42;;;;;;;32.97;29.47;;;7.50;99.90;;;;;;5036198;28;20462;-77
2024/03/11 06:35:13;;;;;;;33.17;28.73;;;7.50;99.90;;;;;;5035412;28;20446;-77
2024/03/11 06:37:43;;;;;;;32.33;28.90;;;7.50;99.90;;;;;;5035324;28;20458;-77
2024/03/11 06:40:16;;;;;;;32.43;29.03;;;7.50;99.90;;;;;;5036676;28;20466;-77
2024/03/11 06:42:48;;;;;;;30.37;27.13;;;7.50;99.90;;;;;;5034259;28;20458;-77
2024/03/11 06:45:17;;;;;;;32.23;28.97;;;7.50;99.90;;;;;;5035293;28;20446;-77
2024/03/11 06:47:45;;;;;;;31.43;28.30;;;7.50;99.90;;;;;;5035358;28;20454;-77
2024/03/11 06:50:14;;;;;;;34.07;29.83;;;7.40;99.90;;;;;;5034726;28;20463;-77
2024/03/11 06:52:43;;;;;;;31.67;28.63;;;7.50;99.90;;;;;;5034952;28;20450;-77
2024/03/11 06:55:12;;;;;;;35.07;31.27;;;7.40;99.90;;;;;;5035007;28;20460;-77
2024/03/11 06:57:41;;;;;;;34.70;31.10;;;7.40;99.90;;;;;;5034729;28;20450;-77
2024/03/11 07:00:18;;;;;;;31.43;28.20;;;7.40;99.90;;;;;;5034621;28;20512;-77
2024/03/11 07:02:47;;;;;;;32.37;29.27;;;7.40;99.90;;;;;;5034661;28;20466;-77
2024/03/11 07:05:17;;;;;;;32.63;29.50;;;7.50;99.90;;;;;;5036002;28;20438;-77
2024/03/11 07:07:47;;;;;;;32.73;29.33;;;7.40;99.90;;;;;;5036295;28;20428;-77
2024/03/11 07:10:15;;;;;;;33.10;29.53;;;7.50;99.90;;;;;;5034860;28;20470;-79
2024/03/11 07:12:44;;;;;;;32.23;28.90;;;7.50;99.90;;;;;;5034697;28;20473;-77
2024/03/11 07:15:16;;;;;;;31.13;27.90;;;7.50;99.90;;;;;;5034402;28;20457;-77
2024/03/11 07:17:45;;;;;;;31.93;26.57;;;7.50;99.90;;;;;;5035524;28;20434;-77
2024/03/11 07:20:14;;;;;;;30.70;27.50;;;7.50;99.90;;;;;;5035522;28;20555;-77
2024/03/11 07:22:43;;;;;;;29.20;26.30;;;7.50;99.90;;;;;;5034309;28;20450;-77
2024/03/11 07:25:11;;;;;;;31.23;27.83;;;7.50;99.90;;;;;;5035474;28;20449;-77
2024/03/11 07:27:40;;;;;;;29.00;26.03;;;7.60;99.90;;;;;;5034145;28;20481;-77
2024/03/11 07:30:09;;;;;;;31.97;28.87;;;7.50;99.90;;;;;;5033946;28;20469;-77
2024/03/11 07:32:39;;;;;;;31.50;28.60;;;7.60;99.90;;;;;;5035316;28;20443;-77
2024/03/11 07:35:08;;;;;;;29.80;26.90;;;7.60;99.90;;;;;;5035626;28;20478;-77
2024/03/11 07:37:37;;;;;;;31.80;28.50;;;7.60;99.90;;;;;;5033799;28;20478;-77
2024/03/11 07:40:11;;;;;;;31.47;28.37;;;7.60;99.90;;;;;;5033611;28;20998;-77
2024/03/11 07:42:39;;;;;;;32.17;28.97;;;7.60;99.90;;;;;;5033676;28;20497;-77
2024/03/11 07:45:11;;;;;;;30.80;27.73;;;7.60;99.90;;;;;;5033753;28;20512;-77
2024/03/11 07:47:41;;;;;;;31.70;28.67;;;7.70;99.90;;;;;;5033728;28;20469;-77
2024/03/11 07:50:11;;;;;;;31.10;28.20;;;7.70;99.90;;;;;;5033343;28;20471;-77
2024/03/11 07:52:39;;;;;;;31.50;28.30;;;7.70;99.90;;;;;;5034936;28;20474;-77
2024/03/11 07:55:09;;;;;;;31.27;28.23;;;7.70;99.90;;;;;;5033033;28;20461;-77
2024/03/11 07:57:37;;;;;;;32.67;29.27;;;7.70;99.90;;;;;;5038201;28;20839;-77
2024/03/11 08:00:08;;;;;;;30.47;27.17;;;7.70;99.90;;;;;;5036236;28;20835;-78
2024/03/11 08:02:37;;;;;;;31.10;27.80;;;7.80;99.90;;;;;;5036258;28;20497;-77
2024/03/11 08:05:13;;;;;;;32.37;29.17;;;7.80;99.90;;;;;;5035947;28;20458;-77
2024/03/11 08:07:42;;;;;;;31.20;28.20;;;7.80;99.90;;;;;;5037841;28;20794;-78
2024/03/11 08:10:12;;;;;;;30.30;27.30;;;7.80;99.90;;;;;;5035831;28;20552;-78
2024/03/11 08:12:42;;;;;;;31.23;28.10;;;7.90;99.90;;;;;;5035825;28;20467;-78
2024/03/11 08:15:12;;;;;;;32.57;29.17;;;7.90;99.90;;;;;;5036046;28;20537;-77
2024/03/11 08:17:42;;;;;;;30.50;27.57;;;7.90;99.90;;;;;;5035964;28;20470;-78
2024/03/11 08:20:16;;;;;;;29.83;26.83;;;7.90;99.90;;;;;;5035810;28;20473;-77
2024/03/11 08:22:45;;;;;;;30.67;27.87;;;8.00;99.90;;;;;;5037088;28;20426;-78
2024/03/11 08:25:15;;;;;;;31.17;28.17;;;8.00;99.90;;;;;;5035511;28;20451;-78
2024/03/11 08:27:43;;;;;;;31.90;28.70;;;8.00;99.90;;;;;;5035238;28;20948;-78
2024/03/11 08:30:12;;;;;;;31.43;28.43;;;8.00;99.90;;;;;;5036830;28;20553;-77
2024/03/11 08:32:40;;;;;;;30.70;27.67;;;8.10;99.90;;;;;;5036490;28;20500;-78
2024/03/11 08:35:09;;;;;;;28.63;25.93;;;8.10;99.90;;;;;;5034362;28;20636;-77
2024/03/11 08:37:41;;;;;;;30.73;27.83;;;8.10;99.90;;;;;;5036453;28;20492;-77
2024/03/11 08:40:12;;;;;;;28.80;26.03;;;8.10;99.90;;;;;;5035008;28;20479;-77
2024/03/11 08:42:41;;;;;;;30.87;27.80;;;8.20;99.90;;;;;;5034565;28;21015;-77
2024/03/11 08:45:11;;;;;;;32.07;29.00;;;8.20;99.90;;;;;;5035908;28;20851;-77
2024/03/11 08:47:40;;;;;;;30.67;27.87;;;8.20;99.90;;;;;;5034589;28;20656;-77
2024/03/11 08:50:10;;;;;;;28.90;26.20;;;8.20;99.90;;;;;;5034576;28;20546;-78
2024/03/11 08:52:39;;;;;;;31.37;28.40;;;8.30;99.90;;;;;;5034644;28;20454;-77
2024/03/11 08:55:09;;;;;;;29.70;26.83;;;8.30;99.90;;;;;;5034840;28;20862;-77
2024/03/11 08:57:38;;;;;;;29.30;26.60;;;8.40;99.90;;;;;;5034201;28;20490;-77
2024/03/11 09:00:09;;;;;;;29.80;26.83;;;8.40;99.90;;;;;;5035673;28;20836;-77
2024/03/11 09:02:37;;;;;;;28.43;25.83;;;8.40;99.90;;;;;;5033680;28;20435;-77
2024/03/11 09:05:12;;;;;;;27.43;24.80;;;8.40;99.90;;;;;;5034572;28;20450;-77
2024/03/11 09:07:42;;;;;;;29.23;26.53;;;8.50;99.90;;;;;;5033923;28;20447;-77
2024/03/11 09:10:10;;;;;;;27.70;24.90;;;8.50;99.90;;;;;;5034188;28;20463;-77
2024/03/11 09:12:40;;;;;;;29.07;26.27;;;8.50;99.90;;;;;;5034164;28;20453;-77
2024/03/11 09:15:15;;;;;;;27.50;25.10;;;8.60;99.90;;;;;;5034279;28;20443;-78
2024/03/11 09:17:49;;;;;;;27.03;24.43;;;8.60;99.90;;;;;;5035037;28;20431;-78
2024/03/11 09:20:20;;;;;;;29.10;26.30;;;8.70;99.90;;;;;;5035430;28;20498;-78
2024/03/11 09:22:52;;;;;;;28.87;26.17;;;8.70;99.90;;;;;;5036051;28;20470;-78
2024/03/11 09:25:24;;;;;;;28.00;25.13;;;8.80;99.90;;;;;;5035208;28;20443;-77
2024/03/11 09:27:55;;;;;;;27.80;25.17;;;8.80;99.90;;;;;;5034967;28;20447;-78
2024/03/11 09:30:28;;;;;;;26.97;24.57;;;8.90;99.90;;;;;;5035800;28;20474;-78
2024/03/11 09:32:57;;;;;;;27.23;24.67;;;8.90;99.90;;;;;;5035430;28;20471;-78
2024/03/11 09:35:25;;;;;;;26.67;24.37;;;8.90;99.90;;;;;;5036640;28;20435;-78
2024/03/11 09:37:56;;;;;;;26.57;24.03;;;8.90;99.90;;;;;;5037430;28;20461;-77
2024/03/11 09:40:26;;;;;;;27.53;25.03;;;9.00;99.90;;;;;;5035477;28;20894;-77
2024/03/11 09:42:58;;;;;;;26.73;24.33;;;9.00;99.90;;;;;;5035776;28;20443;-77
2024/03/11 09:45:28;;;;;;;28.73;26.03;;;9.00;99.90;;;;;;5036497;28;20421;-78
2024/03/11 09:48:01;;;;;;;27.93;25.33;;;9.10;99.90;;;;;;5035029;28;20451;-77
2024/03/11 09:50:32;;;;;;;28.23;25.60;;;9.10;99.90;;;;;;5036303;28;20466;-78
2024/03/11 09:53:06;;;;;;;27.97;25.40;;;9.10;99.90;;;;;;5035134;28;20447;-78
2024/03/11 09:55:36;;;;;;;25.77;23.47;;;9.20;99.90;;;;;;5034910;28;20475;-78
2024/03/11 09:58:10;;;;;;;26.50;23.97;;;9.20;99.90;;;;;;5034758;28;20473;-78
2024/03/11 10:00:49;;;;;;;27.87;25.27;;;9.20;99.90;;;;;;5034264;28;20470;-78
2024/03/11 10:03:21;;;;;;;27.97;25.20;;;9.30;99.90;;;;;;5034469;28;20457;-78
2024/03/11 10:05:56;;;;;;;25.47;22.87;;;9.30;99.90;;;;;;5034761;28;20792;-78
2024/03/11 10:08:30;;;;;;;26.30;23.90;;;9.30;99.90;;;;;;5034499;28;20474;-78
2024/03/11 10:11:13;;;;;;;27.13;24.80;;;9.30;99.90;;;;;;5033808;28;20489;-78
2024/03/11 10:13:42;;;;;;;27.23;24.53;;;9.40;99.90;;;;;;5033843;28;20442;-78
2024/03/11 10:16:16;;;;;;;26.17;23.77;;;9.40;99.90;;;;;;5034348;28;20481;-78
2024/03/11 10:18:53;;;;;;;26.77;24.20;;;9.50;99.90;;;;;;5036741;28;20470;-78
2024/03/11 10:21:22;;;;;;;26.17;23.67;;;9.50;99.90;;;;;;5037644;28;20462;-78
2024/03/11 10:23:52;;;;;;;26.10;23.60;;;9.60;99.90;;;;;;5037560;28;20458;-78
2024/03/11 10:26:24;;;;;;;25.63;23.33;;;9.70;99.90;;;;;;5037184;28;20462;-78
2024/03/11 10:28:56;;;;;;;26.23;23.73;;;9.80;99.90;;;;;;5037513;28;20466;-78
2024/03/11 10:31:27;;;;;;;27.50;24.60;;;9.90;99.90;;;;;;5037729;28;20907;-78
2024/03/11 10:34:10;;;;;;;26.47;23.97;;;10.00;99.90;;;;;;5037061;28;20525;-78
2024/03/11 10:36:41;;;;;;;25.17;22.87;;;10.20;99.90;;;;;;5037435;28;20873;-78
2024/03/11 10:39:17;;;;;;;26.97;24.47;;;10.20;99.90;;;;;;5037499;28;20467;-78
2024/03/11 10:41:49;;;;;;;27.03;24.43;;;10.30;99.90;;;;;;5037010;28;20979;-78
2024/03/11 10:44:23;;;;;;;27.83;25.17;;;10.40;99.90;;;;;;5037182;28;20959;-77
2024/03/11 10:46:52;;;;;;;24.63;22.33;;;10.50;99.90;;;;;;5039887;28;20431;-77
2024/03/11 10:49:21;;;;;;;26.37;23.87;;;10.50;99.90;;;;;;5037214;28;20540;-78
2024/03/11 10:51:50;;;;;;;26.70;24.10;;;10.50;99.90;;;;;;5036855;28;20459;-77
2024/03/11 10:54:23;;;;;;;26.10;23.50;;;10.50;99.90;;;;;;5038292;28;20780;-78
2024/03/11 10:56:55;;;;;;;25.73;23.40;;;10.60;99.90;;;;;;5036906;28;20459;-78
2024/03/11 10:59:29;;;;;;;25.67;23.17;;;10.60;99.90;;;;;;5038289;28;20822;-78
2024/03/11 11:01:58;;;;;;;27.50;24.87;;;10.60;99.90;;;;;;5038770;28;20789;-78
2024/03/11 11:04:29;;;;;;;26.90;24.37;;;10.70;99.90;;;;;;5035354;28;20871;-78
2024/03/11 11:07:00;;;;;;;27.43;25.00;;;10.70;99.90;;;;;;5036137;28;20443;-78
2024/03/11 11:09:31;;;;;;;26.50;24.17;;;10.80;99.90;;;;;;5035694;28;20471;-78
2024/03/11 11:12:03;;;;;;;27.40;25.10;;;10.80;99.90;;;;;;5036378;28;20493;-78
2024/03/11 11:14:33;;;;;;;28.00;25.60;;;10.90;99.90;;;;;;5035356;28;20853;-78
2024/03/11 11:17:05;;;;;;;26.40;23.93;;;10.90;99.90;;;;;;5037193;28;20457;-78
2024/03/11 11:19:35;;;;;;;28.57;26.03;;;10.90;99.90;;;;;;5052450;23;20878;-78
2024/03/11 11:22:07;;;;;;;28.43;25.83;;;11.00;99.90;;;;;;5016318;28;20490;-78
2024/03/11 11:24:42;;;;;;;28.13;25.53;;;11.00;99.90;;;;;;5016701;28;20459;-78
2024/03/11 11:27:14;;;;;;;31.17;28.20;;;11.00;99.90;;;;;;5017263;28;20459;-78
2024/03/11 11:29:46;;;;;;;28.40;25.80;;;11.00;99.90;;;;;;5016215;28;20825;-78
2024/03/11 11:32:18;;;;;;;28.53;25.90;;;11.00;99.90;;;;;;5019647;28;20451;-78
2024/03/11 11:34:48;;;;;;;27.57;25.13;;;11.10;99.90;;;;;;5020605;28;20504;-78
2024/03/11 11:37:33;;;;;;;29.10;26.50;;;11.10;99.90;;;;;;5019499;28;20815;-78
2024/03/11 11:40:33;;;;;;;31.20;28.30;;;11.10;99.90;;;;;;5018843;28;20977;-78
2024/03/11 11:43:01;;;;;;;29.57;26.90;;;11.10;99.90;;;;;;5018690;28;20448;-78
2024/03/11 11:45:55;;;;;;;31.00;28.03;;;11.20;99.90;;;;;;5018033;28;20452;-78
2024/03/11 11:48:28;;;;;;;31.00;28.13;;;11.20;99.90;;;;;;5022085;28;20428;-77
2024/03/11 11:50:59;;;;;;;26.90;24.57;;;11.20;99.90;;;;;;5019844;28;20449;-78
2024/03/11 11:53:30;;;;;;;28.70;26.30;;;11.20;99.90;;;;;;5018665;28;20432;-78
2024/03/11 11:56:00;;;;;;;28.27;25.67;;;11.30;99.90;;;;;;5018823;28;20442;-78
2024/03/11 11:58:28;;;;;;;29.07;26.40;;;11.30;99.90;;;;;;5019717;28;20448;-78
2024/03/11 12:01:01;;;;;;;26.53;24.13;;;11.40;99.90;;;;;;5020014;28;20991;-78
2024/03/11 12:03:32;;;;;;;27.03;24.63;;;11.40;99.90;;;;;;5018562;28;20543;-78
2024/03/11 12:06:03;;;;;;;28.63;25.80;;;11.50;99.90;;;;;;5018521;28;20519;-78
2024/03/11 12:08:32;;;;;;;28.90;26.00;;;11.50;99.90;;;;;;5018591;28;20444;-78
2024/03/11 12:11:12;;;;;;;29.10;26.40;;;11.50;99.90;;;;;;5019010;28;20448;-78
2024/03/11 12:13:42;;;;;;;30.37;27.57;;;11.50;99.90;;;;;;5018758;28;20459;-78
2024/03/11 12:16:12;;;;;;;29.47;26.77;;;11.60;99.90;;;;;;5020219;28;20444;-78
2024/03/11 12:18:43;;;;;;;30.73;27.83;;;11.60;99.90;;;;;;5018699;28;20448;-78
2024/03/11 12:21:14;;;;;;;28.87;26.20;;;11.70;99.90;;;;;;5018163;28;20518;-78
2024/03/11 12:23:43;;;;;;;29.90;27.10;;;11.70;99.90;;;;;;5019723;28;20458;-78
2024/03/11 12:26:15;;;;;;;29.37;26.70;;;11.70;99.90;;;;;;5018284;28;20799;-78
2024/03/11 12:29:04;;;;;;;29.93;27.23;;;11.80;99.90;;;;;;5017988;28;20491;-78
2024/03/11 12:31:34;;;;;;;29.10;26.60;;;11.80;99.90;;;;;;5018558;28;20516;-78
2024/03/11 12:34:08;;;;;;;29.47;26.97;;;11.80;99.90;;;;;;5018976;28;20447;-79
2024/03/11 12:36:39;;;;;;;31.03;28.07;;;11.80;99.90;;;;;;5020072;28;20439;-79
2024/03/11 12:39:25;;;;;;;30.97;28.17;;;11.80;99.90;;;;;;5020269;28;20467;-79
2024/03/11 12:41:57;;;;;;;33.83;30.83;;;11.70;99.90;;;;;;5020420;28;20460;-79
2024/03/11 12:44:26;;;;;;;32.43;29.30;;;11.70;99.90;;;;;;5020893;28;20471;-79
2024/03/11 12:46:55;;;;;;;30.35;27.35;;;11.70;99.90;;;;;;5018964;28;20812;-79
2024/03/11 12:49:27;;;;;;;28.17;25.57;;;11.70;99.90;;;;;;5022218;28;20228;-78
2024/03/11 12:52:04;;;;;;;29.50;26.90;;;11.70;99.90;;;;;;5021125;28;20451;-78